sensor_id;sensor_type;location;lat;lon;timestamp;temperature;humidity
26703;DHT22;14316;51.074;3.704;2024-01-27T00:00:18;3.60;99.90
26703;DHT22;14316;51.074;3.704;2024-01-27T00:02:44;3.60;99.90
26703;DHT22;14316;51.074;3.704;2024-01-27T00:05:09;3.60;99.90
26703;DHT22;14316;51.074;3.704;2024-01-27T00:07:35;3.50;99.90
26703;DHT22;14316;51.074;3.704;2024-01-27T00:10:02;3.50;99.90
26703;DHT22;14316;51.074;3.704;2024-01-27T00:12:28;3.60;99.90
26703;DHT22;14316;51.074;3.704;2024-01-27T00:14:53;3.50;99.90
26703;DHT22;14316;51.074;3.704;2024-01-27T00:17:19;3.60;99.90
26703;DHT22;14316;51.074;3.704;2024-01-27T00:19:49;3.60;99.90
26703;DHT22;14316;51.074;3.704;2024-01-27T00:22:18;3.60;99.90
26703;DHT22;14316;51.074;3.704;2024-01-27T00:24:46;3.60;99.90
26703;DHT22;14316;51.074;3.704;2024-01-27T00:27:12;3.40;99.90
26703;DHT22;14316;51.074;3.704;2024-01-27T00:29:37;3.50;99.90
26703;DHT22;14316;51.074;3.704;2024-01-27T00:32:03;3.40;99.90
26703;DHT22;14316;51.074;3.704;2024-01-27T00:34:29;3.40;99.90
26703;DHT22;14316;51.074;3.704;2024-01-27T00:36:55;3.40;99.90
26703;DHT22;14316;51.074;3.704;2024-01-27T00:39:21;3.50;99.90
26703;DHT22;14316;51.074;3.704;2024-01-27T00:41:48;3.50;99.90
26703;DHT22;14316;51.074;3.704;2024-01-27T00:44:14;3.50;99.90
26703;DHT22;14316;51.074;3.704;2024-01-27T00:46:40;3.50;99.90
26703;DHT22;14316;51.074;3.704;2024-01-27T00:49:06;3.40;99.90
26703;DHT22;14316;51.074;3.704;2024-01-27T00:51:33;3.30;99.90
26703;DHT22;14316;51.074;3.704;2024-01-27T00:53:58;3.30;99.90
26703;DHT22;14316;51.074;3.704;2024-01-27T00:56:24;3.30;99.90
26703;DHT22;14316;51.074;3.704;2024-01-27T00:58:50;3.30;99.90
26703;DHT22;14316;51.074;3.704;2024-01-27T01:01:16;3.30;99.90
26703;DHT22;14316;51.074;3.704;2024-01-27T01:03:42;3.40;99.90
26703;DHT22;14316;51.074;3.704;2024-01-27T01:06:08;3.40;99.90
26703;DHT22;14316;51.074;3.704;2024-01-27T01:08:34;3.40;99.90
26703;DHT22;14316;51.074;3.704;2024-01-27T01:11:00;3.40;99.90
26703;DHT22;14316;51.074;3.704;2024-01-27T01:13:26;3.30;99.90
26703;DHT22;14316;51.074;3.704;2024-01-27T01:15:52;3.30;99.90
26703;DHT22;14316;51.074;3.704;2024-01-27T01:18:18;3.20;99.90
26703;DHT22;14316;51.074;3.704;2024-01-27T01:20:44;3.20;99.90
26703;DHT22;14316;51.074;3.704;2024-01-27T01:23:10;3.20;99.90
26703;DHT22;14316;51.074;3.704;2024-01-27T01:25:36;3.30;99.90
26703;DHT22;14316;51.074;3.704;2024-01-27T01:28:02;3.40;99.90
26703;DHT22;14316;51.074;3.704;2024-01-27T01:30:29;3.40;99.90
26703;DHT22;14316;51.074;3.704;2024-01-27T01:32:54;3.30;99.90
26703;DHT22;14316;51.074;3.704;2024-01-27T01:35:20;3.30;99.90
26703;DHT22;14316;51.074;3.704;2024-01-27T01:37:46;3.20;99.90
26703;DHT22;14316;51.074;3.704;2024-01-27T01:40:13;3.20;99.90
26703;DHT22;14316;51.074;3.704;2024-01-27T01:42:41;3.10;99.90
26703;DHT22;14316;51.074;3.704;2024-01-27T01:45:09;3.10;99.90
26703;DHT22;14316;51.074;3.704;2024-01-27T01:47:37;3.10;99.90
26703;DHT22;14316;51.074;3.704;2024-01-27T01:50:03;3.20;99.90
26703;DHT22;14316;51.074;3.704;2024-01-27T01:52:31;3.20;99.90
26703;DHT22;14316;51.074;3.704;2024-01-27T01:54:57;3.30;99.90
26703;DHT22;14316;51.074;3.704;2024-01-27T01:57:22;3.20;99.90
26703;DHT22;14316;51.074;3.704;2024-01-27T01:59:48;3.20;99.90
26703;DHT22;14316;51.074;3.704;2024-01-27T02:02:14;3.10;99.90
26703;DHT22;14316;51.074;3.704;2024-01-27T02:04:45;3.00;99.90
26703;DHT22;14316;51.074;3.704;2024-01-27T02:07:13;3.00;99.90
26703;DHT22;14316;51.074;3.704;2024-01-27T02:09:39;2.90;99.90
26703;DHT22;14316;51.074;3.704;2024-01-27T02:12:06;3.00;99.90
26703;DHT22;14316;51.074;3.704;2024-01-27T02:14:32;3.00;99.90
26703;DHT22;14316;51.074;3.704;2024-01-27T02:16:58;3.00;99.90
26703;DHT22;14316;51.074;3.704;2024-01-27T02:19:24;3.00;99.90
26703;DHT22;14316;51.074;3.704;2024-01-27T02:21:50;3.00;99.90
26703;DHT22;14316;51.074;3.704;2024-01-27T02:24:16;3.00;99.90
26703;DHT22;14316;51.074;3.704;2024-01-27T02:26:42;2.80;99.90
26703;DHT22;14316;51.074;3.704;2024-01-27T02:29:08;2.80;99.90
26703;DHT22;14316;51.074;3.704;2024-01-27T02:31:34;2.80;99.90
26703;DHT22;14316;51.074;3.704;2024-01-27T02:34:00;2.80;99.90
26703;DHT22;14316;51.074;3.704;2024-01-27T02:36:26;2.80;99.90
26703;DHT22;14316;51.074;3.704;2024-01-27T02:38:52;2.90;99.90
26703;DHT22;14316;51.074;3.704;2024-01-27T02:41:18;2.90;99.90
26703;DHT22;14316;51.074;3.704;2024-01-27T02:43:44;2.90;99.90
26703;DHT22;14316;51.074;3.704;2024-01-27T02:46:13;2.80;99.90
26703;DHT22;14316;51.074;3.704;2024-01-27T02:48:41;2.70;99.90
26703;DHT22;14316;51.074;3.704;2024-01-27T02:51:08;2.70;99.90
26703;DHT22;14316;51.074;3.704;2024-01-27T02:53:34;2.70;99.90
26703;DHT22;14316;51.074;3.704;2024-01-27T02:56:00;2.70;99.90
26703;DHT22;14316;51.074;3.704;2024-01-27T02:58:26;2.70;99.90
26703;DHT22;14316;51.074;3.704;2024-01-27T03:00:52;2.80;99.90
26703;DHT22;14316;51.074;3.704;2024-01-27T03:03:18;2.70;99.90
26703;DHT22;14316;51.074;3.704;2024-01-27T03:05:44;2.70;99.90
26703;DHT22;14316;51.074;3.704;2024-01-27T03:08:10;2.70;99.90
26703;DHT22;14316;51.074;3.704;2024-01-27T03:10:36;2.70;99.90
26703;DHT22;14316;51.074;3.704;2024-01-27T03:13:02;2.70;99.90
26703;DHT22;14316;51.074;3.704;2024-01-27T03:15:28;2.70;99.90
26703;DHT22;14316;51.074;3.704;2024-01-27T03:17:54;2.70;99.90
26703;DHT22;14316;51.074;3.704;2024-01-27T03:20:20;2.70;99.90
26703;DHT22;14316;51.074;3.704;2024-01-27T03:22:46;2.80;99.90
26703;DHT22;14316;51.074;3.704;2024-01-27T03:25:13;2.70;99.90
26703;DHT22;14316;51.074;3.704;2024-01-27T03:27:39;2.70;99.90
26703;DHT22;14316;51.074;3.704;2024-01-27T03:30:05;2.70;99.90
26703;DHT22;14316;51.074;3.704;2024-01-27T03:32:33;2.70;99.90
26703;DHT22;14316;51.074;3.704;2024-01-27T03:35:02;2.70;99.90
26703;DHT22;14316;51.074;3.704;2024-01-27T03:37:29;2.70;99.90
26703;DHT22;14316;51.074;3.704;2024-01-27T03:39:55;2.70;99.90
26703;DHT22;14316;51.074;3.704;2024-01-27T03:42:21;2.70;99.90
26703;DHT22;14316;51.074;3.704;2024-01-27T03:44:47;2.60;99.90
26703;DHT22;14316;51.074;3.704;2024-01-27T03:47:13;2.60;99.90
26703;DHT22;14316;51.074;3.704;2024-01-27T03:49:39;2.60;99.90
26703;DHT22;14316;51.074;3.704;2024-01-27T03:52:05;2.60;99.90
26703;DHT22;14316;51.074;3.704;2024-01-27T03:54:31;2.60;99.90
26703;DHT22;14316;51.074;3.704;2024-01-27T03:56:57;2.60;99.90
26703;DHT22;14316;51.074;3.704;2024-01-27T03:59:23;2.50;99.90
26703;DHT22;14316;51.074;3.704;2024-01-27T04:01:49;2.50;99.90
26703;DHT22;14316;51.074;3.704;2024-01-27T04:04:15;2.40;99.90
26703;DHT22;14316;51.074;3.704;2024-01-27T04:06:41;2.50;99.90
26703;DHT22;14316;51.074;3.704;2024-01-27T04:09:07;2.60;99.90
26703;DHT22;14316;51.074;3.704;2024-01-27T04:11:36;2.60;99.90
26703;DHT22;14316;51.074;3.704;2024-01-27T04:14:03;2.60;99.90
26703;DHT22;14316;51.074;3.704;2024-01-27T04:16:30;2.50;99.90
26703;DHT22;14316;51.074;3.704;2024-01-27T04:18:56;2.50;99.90
26703;DHT22;14316;51.074;3.704;2024-01-27T04:21:22;2.50;99.90
26703;DHT22;14316;51.074;3.704;2024-01-27T04:23:48;2.60;99.90
26703;DHT22;14316;51.074;3.704;2024-01-27T04:26:14;2.80;99.90
26703;DHT22;14316;51.074;3.704;2024-01-27T04:28:40;2.80;99.90
26703;DHT22;14316;51.074;3.704;2024-01-27T04:31:06;2.80;99.90
26703;DHT22;14316;51.074;3.704;2024-01-27T04:33:32;2.60;99.90
26703;DHT22;14316;51.074;3.704;2024-01-27T04:35:58;2.50;99.90
26703;DHT22;14316;51.074;3.704;2024-01-27T04:38:24;2.50;99.90
26703;DHT22;14316;51.074;3.704;2024-01-27T04:40:51;2.60;99.90
26703;DHT22;14316;51.074;3.704;2024-01-27T04:43:17;2.70;99.90
26703;DHT22;14316;51.074;3.704;2024-01-27T04:45:43;2.60;99.90
26703;DHT22;14316;51.074;3.704;2024-01-27T04:48:09;2.60;99.90
26703;DHT22;14316;51.074;3.704;2024-01-27T04:50:35;2.60;99.90
26703;DHT22;14316;51.074;3.704;2024-01-27T04:53:01;2.70;99.90
26703;DHT22;14316;51.074;3.704;2024-01-27T04:55:27;2.60;99.90
26703;DHT22;14316;51.074;3.704;2024-01-27T04:57:53;2.60;99.90
26703;DHT22;14316;51.074;3.704;2024-01-27T05:00:20;2.70;99.90
26703;DHT22;14316;51.074;3.704;2024-01-27T05:02:46;2.60;99.90
26703;DHT22;14316;51.074;3.704;2024-01-27T05:05:12;2.70;99.90
26703;DHT22;14316;51.074;3.704;2024-01-27T05:07:38;2.70;99.90
26703;DHT22;14316;51.074;3.704;2024-01-27T05:10:05;2.60;99.90
26703;DHT22;14316;51.074;3.704;2024-01-27T05:12:31;2.60;99.90
26703;DHT22;14316;51.074;3.704;2024-01-27T05:14:57;2.60;99.90
26703;DHT22;14316;51.074;3.704;2024-01-27T05:17:23;2.60;99.90
26703;DHT22;14316;51.074;3.704;2024-01-27T05:19:51;2.70;99.90
26703;DHT22;14316;51.074;3.704;2024-01-27T05:22:17;2.70;99.90
26703;DHT22;14316;51.074;3.704;2024-01-27T05:24:43;2.70;99.90
26703;DHT22;14316;51.074;3.704;2024-01-27T05:27:09;2.40;99.90
26703;DHT22;14316;51.074;3.704;2024-01-27T05:29:37;2.70;99.90
26703;DHT22;14316;51.074;3.704;2024-01-27T05:32:03;2.90;99.90
26703;DHT22;14316;51.074;3.704;2024-01-27T05:34:29;2.80;99.90
26703;DHT22;14316;51.074;3.704;2024-01-27T05:36:55;2.80;99.90
26703;DHT22;14316;51.074;3.704;2024-01-27T05:39:21;2.60;99.90
26703;DHT22;14316;51.074;3.704;2024-01-27T05:41:47;2.60;99.90
26703;DHT22;14316;51.074;3.704;2024-01-27T05:44:13;2.50;99.90
26703;DHT22;14316;51.074;3.704;2024-01-27T05:46:39;2.50;99.90
26703;DHT22;14316;51.074;3.704;2024-01-27T05:49:04;2.50;99.90
26703;DHT22;14316;51.074;3.704;2024-01-27T05:51:30;2.50;99.90
26703;DHT22;14316;51.074;3.704;2024-01-27T05:53:56;2.40;99.90
26703;DHT22;14316;51.074;3.704;2024-01-27T05:56:22;2.40;99.90
26703;DHT22;14316;51.074;3.704;2024-01-27T05:58:49;2.50;99.90
26703;DHT22;14316;51.074;3.704;2024-01-27T06:01:15;2.40;99.90
26703;DHT22;14316;51.074;3.704;2024-01-27T06:03:43;2.40;99.90
26703;DHT22;14316;51.074;3.704;2024-01-27T06:06:09;2.40;99.90
26703;DHT22;14316;51.074;3.704;2024-01-27T06:08:36;2.40;99.90
26703;DHT22;14316;51.074;3.704;2024-01-27T06:11:02;2.40;99.90
26703;DHT22;14316;51.074;3.704;2024-01-27T06:13:29;2.40;99.90
26703;DHT22;14316;51.074;3.704;2024-01-27T06:15:55;2.30;99.90
26703;DHT22;14316;51.074;3.704;2024-01-27T06:18:21;2.30;99.90
26703;DHT22;14316;51.074;3.704;2024-01-27T06:20:47;2.30;99.90
26703;DHT22;14316;51.074;3.704;2024-01-27T06:23:13;2.20;99.90
26703;DHT22;14316;51.074;3.704;2024-01-27T06:25:39;2.00;99.90
26703;DHT22;14316;51.074;3.704;2024-01-27T06:28:05;2.00;99.90
26703;DHT22;14316;51.074;3.704;2024-01-27T06:30:31;2.00;99.90
26703;DHT22;14316;51.074;3.704;2024-01-27T06:32:57;2.00;99.90
26703;DHT22;14316;51.074;3.704;2024-01-27T06:35:23;2.00;99.90
26703;DHT22;14316;51.074;3.704;2024-01-27T06:37:49;2.00;99.90
26703;DHT22;14316;51.074;3.704;2024-01-27T06:40:16;2.10;99.90
26703;DHT22;14316;51.074;3.704;2024-01-27T06:42:42;2.10;99.90
26703;DHT22;14316;51.074;3.704;2024-01-27T06:45:08;2.10;99.90
26703;DHT22;14316;51.074;3.704;2024-01-27T06:47:34;2.20;99.90
26703;DHT22;14316;51.074;3.704;2024-01-27T06:50:00;2.20;99.90
26703;DHT22;14316;51.074;3.704;2024-01-27T06:52:26;2.20;99.90
26703;DHT22;14316;51.074;3.704;2024-01-27T06:54:52;2.20;99.90
26703;DHT22;14316;51.074;3.704;2024-01-27T06:57:21;2.20;99.90
26703;DHT22;14316;51.074;3.704;2024-01-27T06:59:51;2.20;99.90
26703;DHT22;14316;51.074;3.704;2024-01-27T07:02:27;2.30;99.90
26703;DHT22;14316;51.074;3.704;2024-01-27T07:04:55;2.30;99.90
26703;DHT22;14316;51.074;3.704;2024-01-27T07:07:26;2.20;99.90
26703;DHT22;14316;51.074;3.704;2024-01-27T07:09:54;2.20;99.90
26703;DHT22;14316;51.074;3.704;2024-01-27T07:12:20;2.20;99.90
26703;DHT22;14316;51.074;3.704;2024-01-27T07:14:46;2.10;99.90
26703;DHT22;14316;51.074;3.704;2024-01-27T07:17:11;2.10;99.90
26703;DHT22;14316;51.074;3.704;2024-01-27T07:19:37;2.10;99.90
26703;DHT22;14316;51.074;3.704;2024-01-27T07:22:03;2.30;99.90
26703;DHT22;14316;51.074;3.704;2024-01-27T07:24:29;2.50;99.90
26703;DHT22;14316;51.074;3.704;2024-01-27T07:26:55;2.60;99.90
26703;DHT22;14316;51.074;3.704;2024-01-27T07:29:21;2.70;99.90
26703;DHT22;14316;51.074;3.704;2024-01-27T07:31:49;2.80;99.90
26703;DHT22;14316;51.074;3.704;2024-01-27T07:34:15;3.10;99.90
26703;DHT22;14316;51.074;3.704;2024-01-27T07:36:41;3.00;99.90
26703;DHT22;14316;51.074;3.704;2024-01-27T07:39:07;2.80;99.90
26703;DHT22;14316;51.074;3.704;2024-01-27T07:41:33;2.60;99.90
26703;DHT22;14316;51.074;3.704;2024-01-27T07:44:07;2.50;99.90
26703;DHT22;14316;51.074;3.704;2024-01-27T07:46:34;2.60;99.90
26703;DHT22;14316;51.074;3.704;2024-01-27T07:49:01;2.60;99.90
26703;DHT22;14316;51.074;3.704;2024-01-27T07:51:28;2.60;99.90
26703;DHT22;14316;51.074;3.704;2024-01-27T07:53:54;2.60;99.90
26703;DHT22;14316;51.074;3.704;2024-01-27T07:56:20;2.60;99.90
26703;DHT22;14316;51.074;3.704;2024-01-27T07:58:46;2.60;99.90
26703;DHT22;14316;51.074;3.704;2024-01-27T08:01:15;2.60;99.90
26703;DHT22;14316;51.074;3.704;2024-01-27T08:03:41;2.60;99.90
26703;DHT22;14316;51.074;3.704;2024-01-27T08:06:14;2.50;99.90
26703;DHT22;14316;51.074;3.704;2024-01-27T08:08:40;2.50;99.90
26703;DHT22;14316;51.074;3.704;2024-01-27T08:11:07;2.60;99.90
26703;DHT22;14316;51.074;3.704;2024-01-27T08:13:33;2.70;99.90
26703;DHT22;14316;51.074;3.704;2024-01-27T08:15:59;2.80;99.90
26703;DHT22;14316;51.074;3.704;2024-01-27T08:18:24;2.80;99.90
26703;DHT22;14316;51.074;3.704;2024-01-27T08:20:50;2.80;99.90
26703;DHT22;14316;51.074;3.704;2024-01-27T08:23:16;2.90;99.90
26703;DHT22;14316;51.074;3.704;2024-01-27T08:25:42;2.90;99.90
26703;DHT22;14316;51.074;3.704;2024-01-27T08:28:11;3.00;99.90
26703;DHT22;14316;51.074;3.704;2024-01-27T08:30:36;3.00;99.90
26703;DHT22;14316;51.074;3.704;2024-01-27T08:33:03;3.10;99.90
26703;DHT22;14316;51.074;3.704;2024-01-27T08:35:30;3.10;99.90
26703;DHT22;14316;51.074;3.704;2024-01-27T08:37:56;3.20;99.90
26703;DHT22;14316;51.074;3.704;2024-01-27T08:40:21;3.20;99.90
26703;DHT22;14316;51.074;3.704;2024-01-27T08:42:47;3.30;99.90
26703;DHT22;14316;51.074;3.704;2024-01-27T08:45:13;3.40;99.90
26703;DHT22;14316;51.074;3.704;2024-01-27T08:47:38;3.50;99.90
26703;DHT22;14316;51.074;3.704;2024-01-27T08:50:05;3.40;99.90
26703;DHT22;14316;51.074;3.704;2024-01-27T08:52:31;3.50;99.90
26703;DHT22;14316;51.074;3.704;2024-01-27T08:54:56;3.60;99.90
26703;DHT22;14316;51.074;3.704;2024-01-27T08:57:22;3.70;99.90
26703;DHT22;14316;51.074;3.704;2024-01-27T08:59:48;3.80;99.90
26703;DHT22;14316;51.074;3.704;2024-01-27T09:02:14;3.80;99.90
26703;DHT22;14316;51.074;3.704;2024-01-27T09:04:39;4.00;99.90
26703;DHT22;14316;51.074;3.704;2024-01-27T09:07:05;4.00;99.90
26703;DHT22;14316;51.074;3.704;2024-01-27T09:09:30;4.10;99.90
26703;DHT22;14316;51.074;3.704;2024-01-27T09:11:56;4.30;99.90
26703;DHT22;14316;51.074;3.704;2024-01-27T09:14:22;4.30;99.90
26703;DHT22;14316;51.074;3.704;2024-01-27T09:16:48;4.40;99.90
26703;DHT22;14316;51.074;3.704;2024-01-27T09:19:14;4.50;99.90
26703;DHT22;14316;51.074;3.704;2024-01-27T09:21:39;4.70;99.90
26703;DHT22;14316;51.074;3.704;2024-01-27T09:24:06;4.80;99.90
26703;DHT22;14316;51.074;3.704;2024-01-27T09:26:32;5.00;99.90
26703;DHT22;14316;51.074;3.704;2024-01-27T09:28:58;5.10;99.90
26703;DHT22;14316;51.074;3.704;2024-01-27T09:31:24;5.10;99.90
26703;DHT22;14316;51.074;3.704;2024-01-27T09:33:52;5.20;99.90
26703;DHT22;14316;51.074;3.704;2024-01-27T09:36:19;5.40;99.90
26703;DHT22;14316;51.074;3.704;2024-01-27T09:38:45;5.40;99.90
26703;DHT22;14316;51.074;3.704;2024-01-27T09:41:13;5.60;99.90
26703;DHT22;14316;51.074;3.704;2024-01-27T09:43:43;5.60;99.90
26703;DHT22;14316;51.074;3.704;2024-01-27T09:46:12;5.60;99.90
26703;DHT22;14316;51.074;3.704;2024-01-27T09:48:38;5.60;99.90
26703;DHT22;14316;51.074;3.704;2024-01-27T09:51:07;5.70;99.90
26703;DHT22;14316;51.074;3.704;2024-01-27T09:53:33;5.80;99.90
26703;DHT22;14316;51.074;3.704;2024-01-27T09:56:00;5.60;99.90
26703;DHT22;14316;51.074;3.704;2024-01-27T09:58:29;5.50;99.90
26703;DHT22;14316;51.074;3.704;2024-01-27T10:01:00;5.50;99.90
26703;DHT22;14316;51.074;3.704;2024-01-27T10:03:27;5.60;99.90
26703;DHT22;14316;51.074;3.704;2024-01-27T10:05:55;5.50;99.90
26703;DHT22;14316;51.074;3.704;2024-01-27T10:08:22;5.50;99.90
26703;DHT22;14316;51.074;3.704;2024-01-27T10:10:56;5.60;99.90
26703;DHT22;14316;51.074;3.704;2024-01-27T10:13:22;5.60;99.90
26703;DHT22;14316;51.074;3.704;2024-01-27T10:16:00;5.60;99.90
26703;DHT22;14316;51.074;3.704;2024-01-27T10:18:27;5.70;99.90
26703;DHT22;14316;51.074;3.704;2024-01-27T10:20:53;5.80;99.90
26703;DHT22;14316;51.074;3.704;2024-01-27T10:23:19;5.90;99.90
26703;DHT22;14316;51.074;3.704;2024-01-27T10:25:45;6.20;99.90
26703;DHT22;14316;51.074;3.704;2024-01-27T10:28:11;6.50;99.90
26703;DHT22;14316;51.074;3.704;2024-01-27T10:30:37;6.50;99.90
26703;DHT22;14316;51.074;3.704;2024-01-27T10:33:03;6.90;99.90
26703;DHT22;14316;51.074;3.704;2024-01-27T10:35:29;7.10;99.90
26703;DHT22;14316;51.074;3.704;2024-01-27T10:37:56;7.40;99.90
26703;DHT22;14316;51.074;3.704;2024-01-27T10:40:22;7.50;99.90
26703;DHT22;14316;51.074;3.704;2024-01-27T10:43:04;7.60;99.90
26703;DHT22;14316;51.074;3.704;2024-01-27T10:45:38;7.70;99.90
26703;DHT22;14316;51.074;3.704;2024-01-27T10:48:05;7.50;99.90
26703;DHT22;14316;51.074;3.704;2024-01-27T10:50:40;7.30;99.90
26703;DHT22;14316;51.074;3.704;2024-01-27T10:53:24;7.10;99.90
26703;DHT22;14316;51.074;3.704;2024-01-27T10:55:53;7.10;99.90
26703;DHT22;14316;51.074;3.704;2024-01-27T10:58:23;7.00;99.90
26703;DHT22;14316;51.074;3.704;2024-01-27T11:00:50;7.00;99.90
26703;DHT22;14316;51.074;3.704;2024-01-27T11:03:18;7.10;99.90
26703;DHT22;14316;51.074;3.704;2024-01-27T11:05:46;7.10;99.90
26703;DHT22;14316;51.074;3.704;2024-01-27T11:08:13;7.10;99.90
26703;DHT22;14316;51.074;3.704;2024-01-27T11:10:40;7.20;99.90
26703;DHT22;14316;51.074;3.704;2024-01-27T11:13:07;7.10;99.90
26703;DHT22;14316;51.074;3.704;2024-01-27T11:15:33;7.10;99.90
26703;DHT22;14316;51.074;3.704;2024-01-27T11:17:59;7.10;99.90
26703;DHT22;14316;51.074;3.704;2024-01-27T11:20:26;7.20;99.90
26703;DHT22;14316;51.074;3.704;2024-01-27T11:22:51;7.30;99.90
26703;DHT22;14316;51.074;3.704;2024-01-27T11:25:18;7.30;99.90
26703;DHT22;14316;51.074;3.704;2024-01-27T11:27:46;7.50;99.90
26703;DHT22;14316;51.074;3.704;2024-01-27T11:30:30;7.60;99.90
26703;DHT22;14316;51.074;3.704;2024-01-27T11:33:01;7.70;99.90
26703;DHT22;14316;51.074;3.704;2024-01-27T11:35:27;7.70;99.90
26703;DHT22;14316;51.074;3.704;2024-01-27T11:37:54;7.80;99.90
26703;DHT22;14316;51.074;3.704;2024-01-27T11:40:20;8.10;99.90
26703;DHT22;14316;51.074;3.704;2024-01-27T11:42:59;8.20;99.90
26703;DHT22;14316;51.074;3.704;2024-01-27T11:45:25;8.50;99.90
26703;DHT22;14316;51.074;3.704;2024-01-27T11:47:50;8.50;99.90
26703;DHT22;14316;51.074;3.704;2024-01-27T11:50:19;8.70;99.90
26703;DHT22;14316;51.074;3.704;2024-01-27T11:52:46;8.90;99.90
26703;DHT22;14316;51.074;3.704;2024-01-27T11:55:12;9.00;99.90
26703;DHT22;14316;51.074;3.704;2024-01-27T11:57:43;9.40;99.90
26703;DHT22;14316;51.074;3.704;2024-01-27T12:00:09;9.50;99.90
26703;DHT22;14316;51.074;3.704;2024-01-27T12:02:37;9.80;99.90
26703;DHT22;14316;51.074;3.704;2024-01-27T12:05:04;10.30;99.90
26703;DHT22;14316;51.074;3.704;2024-01-27T12:07:30;10.90;99.90
26703;DHT22;14316;51.074;3.704;2024-01-27T12:09:56;11.20;99.90
26703;DHT22;14316;51.074;3.704;2024-01-27T12:12:23;12.60;99.90
26703;DHT22;14316;51.074;3.704;2024-01-27T12:14:50;12.60;99.90
26703;DHT22;14316;51.074;3.704;2024-01-27T12:17:17;12.90;99.90
26703;DHT22;14316;51.074;3.704;2024-01-27T12:19:50;12.80;99.90
26703;DHT22;14316;51.074;3.704;2024-01-27T12:24:49;11.50;99.90
26703;DHT22;14316;51.074;3.704;2024-01-27T12:27:16;11.10;99.90
26703;DHT22;14316;51.074;3.704;2024-01-27T12:29:42;11.80;99.90
26703;DHT22;14316;51.074;3.704;2024-01-27T12:32:08;11.50;99.90
26703;DHT22;14316;51.074;3.704;2024-01-27T12:34:42;11.80;99.90
26703;DHT22;14316;51.074;3.704;2024-01-27T12:37:11;12.30;99.90
26703;DHT22;14316;51.074;3.704;2024-01-27T12:39:42;12.10;99.90
26703;DHT22;14316;51.074;3.704;2024-01-27T12:42:09;12.20;99.90
26703;DHT22;14316;51.074;3.704;2024-01-27T12:44:34;12.10;99.90
26703;DHT22;14316;51.074;3.704;2024-01-27T12:47:00;11.80;99.90
26703;DHT22;14316;51.074;3.704;2024-01-27T12:49:26;11.70;99.90
26703;DHT22;14316;51.074;3.704;2024-01-27T12:51:52;12.30;99.90
26703;DHT22;14316;51.074;3.704;2024-01-27T12:54:18;13.20;99.90
26703;DHT22;14316;51.074;3.704;2024-01-27T12:56:44;13.60;99.90
26703;DHT22;14316;51.074;3.704;2024-01-27T12:59:10;12.40;99.90
26703;DHT22;14316;51.074;3.704;2024-01-27T13:01:36;12.00;99.90
26703;DHT22;14316;51.074;3.704;2024-01-27T13:04:02;12.00;99.90
26703;DHT22;14316;51.074;3.704;2024-01-27T13:06:28;12.30;99.90
26703;DHT22;14316;51.074;3.704;2024-01-27T13:09:11;11.40;99.90
26703;DHT22;14316;51.074;3.704;2024-01-27T13:11:40;11.10;99.90
26703;DHT22;14316;51.074;3.704;2024-01-27T13:14:07;10.60;99.90
26703;DHT22;14316;51.074;3.704;2024-01-27T13:16:35;10.60;99.90
26703;DHT22;14316;51.074;3.704;2024-01-27T13:19:00;10.30;99.90
26703;DHT22;14316;51.074;3.704;2024-01-27T13:21:26;10.20;99.90
26703;DHT22;14316;51.074;3.704;2024-01-27T13:23:52;10.20;99.90
26703;DHT22;14316;51.074;3.704;2024-01-27T13:26:18;10.30;99.90
26703;DHT22;14316;51.074;3.704;2024-01-27T13:28:45;10.20;99.90
26703;DHT22;14316;51.074;3.704;2024-01-27T13:31:14;10.60;99.90
26703;DHT22;14316;51.074;3.704;2024-01-27T13:33:40;10.70;99.90
26703;DHT22;14316;51.074;3.704;2024-01-27T13:36:07;10.50;99.90
26703;DHT22;14316;51.074;3.704;2024-01-27T13:38:33;10.50;99.90
26703;DHT22;14316;51.074;3.704;2024-01-27T13:41:01;10.20;99.90
26703;DHT22;14316;51.074;3.704;2024-01-27T13:43:26;9.90;99.90
26703;DHT22;14316;51.074;3.704;2024-01-27T13:45:52;9.60;99.90
26703;DHT22;14316;51.074;3.704;2024-01-27T13:48:20;10.00;99.90
26703;DHT22;14316;51.074;3.704;2024-01-27T13:50:46;10.10;99.90
26703;DHT22;14316;51.074;3.704;2024-01-27T13:53:12;10.20;99.90
26703;DHT22;14316;51.074;3.704;2024-01-27T13:55:37;10.20;99.90
26703;DHT22;14316;51.074;3.704;2024-01-27T13:58:05;10.10;99.90
26703;DHT22;14316;51.074;3.704;2024-01-27T14:00:31;9.90;99.90
26703;DHT22;14316;51.074;3.704;2024-01-27T14:02:59;9.70;99.90
26703;DHT22;14316;51.074;3.704;2024-01-27T14:05:25;9.60;99.90
26703;DHT22;14316;51.074;3.704;2024-01-27T14:07:51;9.70;99.90
26703;DHT22;14316;51.074;3.704;2024-01-27T14:10:16;9.70;99.90
26703;DHT22;14316;51.074;3.704;2024-01-27T14:12:42;9.60;99.90
26703;DHT22;14316;51.074;3.704;2024-01-27T14:15:08;9.30;99.90
26703;DHT22;14316;51.074;3.704;2024-01-27T14:17:35;9.20;99.90
26703;DHT22;14316;51.074;3.704;2024-01-27T14:20:04;9.20;99.90
26703;DHT22;14316;51.074;3.704;2024-01-27T14:22:30;9.00;99.90
26703;DHT22;14316;51.074;3.704;2024-01-27T14:24:56;9.00;99.90
26703;DHT22;14316;51.074;3.704;2024-01-27T14:27:22;9.00;99.90
26703;DHT22;14316;51.074;3.704;2024-01-27T14:29:54;8.90;99.90
26703;DHT22;14316;51.074;3.704;2024-01-27T14:32:21;8.60;99.90
26703;DHT22;14316;51.074;3.704;2024-01-27T14:34:47;8.50;99.90
26703;DHT22;14316;51.074;3.704;2024-01-27T14:37:14;8.60;99.90
26703;DHT22;14316;51.074;3.704;2024-01-27T14:39:44;8.50;99.90
26703;DHT22;14316;51.074;3.704;2024-01-27T14:42:12;8.60;99.90
26703;DHT22;14316;51.074;3.704;2024-01-27T14:44:38;8.80;99.90
26703;DHT22;14316;51.074;3.704;2024-01-27T14:47:05;8.90;99.90
26703;DHT22;14316;51.074;3.704;2024-01-27T14:49:32;8.80;99.90
26703;DHT22;14316;51.074;3.704;2024-01-27T14:51:58;8.70;99.90
26703;DHT22;14316;51.074;3.704;2024-01-27T14:54:24;8.90;99.90
26703;DHT22;14316;51.074;3.704;2024-01-27T14:56:49;9.30;99.90
26703;DHT22;14316;51.074;3.704;2024-01-27T14:59:15;9.40;99.90
26703;DHT22;14316;51.074;3.704;2024-01-27T15:01:41;9.00;99.90
26703;DHT22;14316;51.074;3.704;2024-01-27T15:04:07;9.20;99.90
26703;DHT22;14316;51.074;3.704;2024-01-27T15:06:33;9.20;99.90
26703;DHT22;14316;51.074;3.704;2024-01-27T15:08:59;8.90;99.90
26703;DHT22;14316;51.074;3.704;2024-01-27T15:11:25;8.50;99.90
26703;DHT22;14316;51.074;3.704;2024-01-27T15:13:51;8.40;99.90
26703;DHT22;14316;51.074;3.704;2024-01-27T15:16:16;8.30;99.90
26703;DHT22;14316;51.074;3.704;2024-01-27T15:18:42;8.40;99.90
26703;DHT22;14316;51.074;3.704;2024-01-27T15:21:10;8.60;99.90
26703;DHT22;14316;51.074;3.704;2024-01-27T15:23:36;8.80;99.90
26703;DHT22;14316;51.074;3.704;2024-01-27T15:26:04;9.10;99.90
26703;DHT22;14316;51.074;3.704;2024-01-27T15:28:31;9.70;99.90
26703;DHT22;14316;51.074;3.704;2024-01-27T15:30:57;9.80;99.90
26703;DHT22;14316;51.074;3.704;2024-01-27T15:33:23;9.90;99.90
26703;DHT22;14316;51.074;3.704;2024-01-27T15:35:49;9.80;99.90
26703;DHT22;14316;51.074;3.704;2024-01-27T15:38:15;9.90;99.90
26703;DHT22;14316;51.074;3.704;2024-01-27T15:40:41;10.40;99.90
26703;DHT22;14316;51.074;3.704;2024-01-27T15:43:07;10.40;99.90